createdAt,value
2022-09-04T00:01:20.834Z,98350.66
2022-09-04T00:03:47.124Z,98352.41
2022-09-04T00:06:13.397Z,98352.00
2022-09-04T00:08:39.640Z,98350.34
2022-09-04T00:11:05.843Z,98355.56
2022-09-04T00:13:32.045Z,98360.94
2022-09-04T00:15:58.248Z,98369.44
2022-09-04T00:18:24.550Z,98376.28
2022-09-04T00:20:50.786Z,98370.09
2022-09-04T00:23:17.002Z,98374.00
2022-09-04T00:25:43.218Z,98369.28
2022-09-04T00:28:09.363Z,98378.41
2022-09-04T00:30:35.609Z,98371.22
2022-09-04T00:33:01.814Z,98381.72
2022-09-04T00:35:27.948Z,98383.22
2022-09-04T00:37:54.094Z,98370.81
2022-09-04T00:40:20.253Z,98375.97
2022-09-04T00:42:46.384Z,98373.28
2022-09-04T00:45:16.525Z,98377.59
2022-09-04T00:47:42.920Z,98379.69
2022-09-04T00:50:09.060Z,98373.50
2022-09-04T00:52:36.343Z,98380.28
2022-09-04T00:55:03.254Z,98375.22
2022-09-04T00:57:29.409Z,98387.88
2022-09-04T00:59:55.563Z,98380.66
2022-09-04T01:02:21.794Z,98386.00
2022-09-04T01:04:47.954Z,98383.84
2022-09-04T01:07:14.108Z,98385.81
2022-09-04T01:09:40.284Z,98390.88
2022-09-04T01:12:06.429Z,98390.88
2022-09-04T01:14:32.567Z,98382.59
2022-09-04T01:16:58.732Z,98387.47
2022-09-04T01:19:24.886Z,98386.47
2022-09-04T01:21:51.015Z,98387.66
2022-09-04T01:24:17.737Z,98386.84
2022-09-04T01:26:43.898Z,98383.72
2022-09-04T01:29:10.070Z,98387.47
2022-09-04T01:31:36.270Z,98387.81
2022-09-04T01:34:02.451Z,98388.28
2022-09-04T01:36:28.589Z,98386.28
2022-09-04T01:38:54.758Z,98383.63
2022-09-04T01:41:20.904Z,98392.97
2022-09-04T01:43:47.040Z,98392.16
2022-09-04T01:46:13.275Z,98400.31
2022-09-04T01:48:41.023Z,98398.53
2022-09-04T01:51:07.158Z,98398.13
2022-09-04T01:53:33.321Z,98398.00
2022-09-04T01:55:59.444Z,98398.63
2022-09-04T01:58:25.653Z,98399.41
2022-09-04T02:00:52.488Z,98400.03
2022-09-04T02:03:23.859Z,98402.91
2022-09-04T02:05:49.994Z,98402.28
2022-09-04T02:08:16.149Z,98399.34
2022-09-04T02:10:42.291Z,98402.72
2022-09-04T02:13:08.453Z,98397.97
2022-09-04T02:15:34.625Z,98405.94
2022-09-04T02:18:00.764Z,98407.63
2022-09-04T02:20:26.917Z,98409.59
2022-09-04T02:22:53.082Z,98414.31
2022-09-04T02:25:19.219Z,98411.81
2022-09-04T02:27:45.369Z,98413.13
2022-09-04T02:30:11.533Z,98416.03
2022-09-04T02:32:37.680Z,98423.09
2022-09-04T02:35:03.823Z,98424.53
2022-09-04T02:37:29.965Z,98429.06
2022-09-04T02:39:56.251Z,98428.66
2022-09-04T02:42:22.475Z,98437.31
2022-09-04T02:44:48.659Z,98442.28
2022-09-04T02:47:14.862Z,98442.03
2022-09-04T02:49:41.053Z,98440.00
2022-09-04T02:52:07.222Z,98437.34
2022-09-04T02:54:33.367Z,98442.09
2022-09-04T02:56:59.507Z,98442.50
2022-09-04T02:59:25.666Z,98444.56
2022-09-04T03:01:51.859Z,98446.38
2022-09-04T03:04:18.101Z,98441.03
2022-09-04T03:06:45.119Z,98448.06
2022-09-04T03:09:11.249Z,98454.66
2022-09-04T03:11:37.405Z,98449.53
2022-09-04T03:14:03.560Z,98451.59
2022-09-04T03:16:29.762Z,98449.72
2022-09-04T03:18:55.940Z,98451.56
2022-09-04T03:21:22.095Z,98454.66
2022-09-04T03:23:48.259Z,98454.47
2022-09-04T03:26:14.406Z,98456.09
2022-09-04T03:28:40.558Z,98454.88
2022-09-04T03:31:06.729Z,98461.47
2022-09-04T03:33:32.881Z,98452.22
2022-09-04T03:35:59.478Z,98461.06
2022-09-04T03:38:25.730Z,98451.56
2022-09-04T03:40:51.922Z,98459.59
2022-09-04T03:43:18.063Z,98453.66
2022-09-04T03:45:44.199Z,98457.94
2022-09-04T03:48:10.369Z,98461.66
2022-09-04T03:50:36.528Z,98462.09
2022-09-04T03:53:02.661Z,98464.16
2022-09-04T03:55:28.817Z,98460.63
2022-09-04T03:57:55.042Z,98464.97
2022-09-04T04:00:21.162Z,98456.31
2022-09-04T04:02:47.407Z,98458.38
2022-09-04T04:05:13.668Z,98467.84
2022-09-04T04:07:39.796Z,98467.59
2022-09-04T04:10:05.950Z,98468.84
2022-09-04T04:12:32.100Z,98467.41
2022-09-04T04:14:58.250Z,98474.44
2022-09-04T04:17:24.372Z,98467.63
2022-09-04T04:19:50.530Z,98468.88
2022-09-04T04:22:16.664Z,98473.00
2022-09-04T04:24:42.813Z,98473.19
2022-09-04T04:27:09.040Z,98469.88
2022-09-04T04:29:35.171Z,98471.13
2022-09-04T04:32:01.297Z,98468.47
2022-09-04T04:34:27.445Z,98473.81
2022-09-04T04:36:53.577Z,98477.91
2022-09-04T04:39:19.762Z,98478.94
2022-09-04T04:41:45.993Z,98479.97
2022-09-04T04:44:12.122Z,98489.03
2022-09-04T04:46:38.295Z,98486.56
2022-09-04T04:49:04.491Z,98486.78
2022-09-04T04:51:30.621Z,98498.09
2022-09-04T04:53:56.766Z,98499.75
2022-09-04T04:56:22.927Z,98504.88
2022-09-04T04:58:49.050Z,98505.09
2022-09-04T05:01:15.226Z,98508.97
2022-09-04T05:03:43.675Z,98520.09
2022-09-04T05:06:09.816Z,98517.44
2022-09-04T05:08:35.954Z,98520.91
2022-09-04T05:11:02.432Z,98520.31
2022-09-04T05:13:28.564Z,98513.94
2022-09-04T05:16:08.560Z,98523.38
2022-09-04T05:18:35.716Z,98525.25
2022-09-04T05:21:01.849Z,98535.09
2022-09-04T05:23:29.128Z,98542.13
2022-09-04T05:25:55.343Z,98543.97
2022-09-04T05:28:21.482Z,98546.19
2022-09-04T05:30:47.682Z,98549.53
2022-09-04T05:33:13.920Z,98538.19
2022-09-04T05:35:40.066Z,98548.91
2022-09-04T05:38:08.824Z,98555.28
2022-09-04T05:40:34.970Z,98562.69
2022-09-04T05:43:01.101Z,98564.31
2022-09-04T05:45:27.233Z,98565.34
2022-09-04T05:47:53.392Z,98566.16
2022-09-04T05:50:21.362Z,98568.44
2022-09-04T05:52:48.028Z,98572.16
2022-09-04T05:55:14.177Z,98577.50
2022-09-04T05:57:40.309Z,98572.56
2022-09-04T06:00:06.450Z,98582.03
2022-09-04T06:02:32.667Z,98585.34
2022-09-04T06:04:58.825Z,98573.22
2022-09-04T06:07:24.986Z,98581.44
2022-09-04T06:09:51.129Z,98596.03
2022-09-04T06:12:19.457Z,98590.47
2022-09-04T06:14:45.763Z,98595.00
2022-09-04T06:17:11.928Z,98590.06
2022-09-04T06:19:38.047Z,98599.75
2022-09-04T06:22:04.185Z,98604.88
2022-09-04T06:24:30.321Z,98605.13
2022-09-04T06:26:56.460Z,98609.25
2022-09-04T06:29:22.598Z,98612.34
2022-09-04T06:31:48.741Z,98614.59
2022-09-04T06:34:17.236Z,98617.69
2022-09-04T06:36:46.451Z,98621.59
2022-09-04T06:39:12.621Z,98620.97
2022-09-04T06:41:38.768Z,98630.06
2022-09-04T06:44:05.389Z,98631.50
2022-09-04T06:46:32.717Z,98626.31
2022-09-04T06:48:58.915Z,98626.31
2022-09-04T06:51:25.073Z,98628.59
2022-09-04T06:53:51.587Z,98621.78
2022-09-04T06:56:17.716Z,98629.59
2022-09-04T06:58:43.844Z,98630.41
2022-09-04T07:01:10.144Z,98629.78
2022-09-04T07:03:36.841Z,98637.56
2022-09-04T07:06:02.984Z,98632.41
2022-09-04T07:08:29.137Z,98636.94
2022-09-04T07:10:55.260Z,98637.53
2022-09-04T07:13:21.385Z,98637.94
2022-09-04T07:15:47.622Z,98640.78
2022-09-04T07:18:13.781Z,98638.28
2022-09-04T07:20:39.910Z,98644.25
2022-09-04T07:23:06.351Z,98651.22
2022-09-04T07:25:32.498Z,98652.38
2022-09-04T07:27:58.632Z,98656.91
2022-09-04T07:30:24.788Z,98653.97
2022-09-04T07:32:50.937Z,98660.72
2022-09-04T07:35:17.070Z,98658.63
2022-09-04T07:37:43.212Z,98667.81
2022-09-04T07:40:09.439Z,98671.09
2022-09-04T07:42:35.673Z,98673.75
2022-09-04T07:45:01.825Z,98678.03
2022-09-04T07:47:28.144Z,98676.31
2022-09-04T07:49:54.271Z,98676.66
2022-09-04T07:52:20.429Z,98676.38
2022-09-04T07:54:46.611Z,98679.84
2022-09-04T07:57:12.758Z,98680.59
2022-09-04T07:59:38.915Z,98688.22
2022-09-04T08:02:05.163Z,98689.75
2022-09-04T08:04:31.445Z,98701.47
2022-09-04T08:06:57.636Z,98691.03
2022-09-04T08:09:23.784Z,98688.06
2022-09-04T08:11:49.925Z,98694.00
2022-09-04T08:14:16.091Z,98698.59
2022-09-04T08:16:42.234Z,98699.88
2022-09-04T08:19:08.476Z,98702.03
2022-09-04T08:21:34.631Z,98703.84
2022-09-04T08:24:00.767Z,98704.72
2022-09-04T08:26:27.613Z,98708.63
2022-09-04T08:28:53.766Z,98708.31
2022-09-04T08:31:20.232Z,98703.78
2022-09-04T08:33:46.407Z,98715.03
2022-09-04T08:36:13.502Z,98718.59
2022-09-04T08:38:39.666Z,98711.28
2022-09-04T08:41:05.805Z,98714.31
2022-09-04T08:43:31.967Z,98721.03
2022-09-04T08:45:58.116Z,98718.25
2022-09-04T08:48:24.457Z,98721.78
2022-09-04T08:50:52.653Z,98720.06
2022-09-04T08:53:18.810Z,98727.81
2022-09-04T08:55:44.952Z,98723.94
2022-09-04T08:58:11.175Z,98724.06
2022-09-04T09:00:37.338Z,98722.09
2022-09-04T09:03:03.463Z,98719.88
2022-09-04T09:05:29.621Z,98714.16
2022-09-04T09:07:55.754Z,98717.94
2022-09-04T09:10:21.917Z,98718.88
2022-09-04T09:12:48.097Z,98718.16
2022-09-04T09:15:14.255Z,98721.09
2022-09-04T09:17:40.406Z,98731.53
2022-09-04T09:20:06.561Z,98732.69
2022-09-04T09:22:32.688Z,98730.34
2022-09-04T09:24:58.826Z,98734.56
2022-09-04T09:27:25.808Z,98729.03
2022-09-04T09:29:51.937Z,98731.94
2022-09-04T09:32:18.078Z,98722.69
2022-09-04T09:34:44.258Z,98722.88
2022-09-04T09:37:10.387Z,98726.75
2022-09-04T09:39:36.611Z,98727.94
2022-09-04T09:42:02.764Z,98729.78
2022-09-04T09:44:28.899Z,98730.47
2022-09-04T09:46:55.051Z,98732.75
2022-09-04T09:49:21.203Z,98721.22
2022-09-04T09:51:47.442Z,98726.00
2022-09-04T09:54:13.565Z,98726.31
2022-09-04T09:56:39.742Z,98721.75
2022-09-04T09:59:07.202Z,98720.19
2022-09-04T10:01:33.394Z,98728.69
2022-09-04T10:03:59.572Z,98729.69
2022-09-04T10:06:25.709Z,98724.41
2022-09-04T10:08:51.853Z,98722.50
2022-09-04T10:11:17.999Z,98723.13
2022-09-04T10:13:44.116Z,98727.81
2022-09-04T10:16:10.285Z,98726.97
2022-09-04T10:18:36.470Z,98727.38
2022-09-04T10:21:02.593Z,98725.66
2022-09-04T10:23:28.719Z,98726.66
2022-09-04T10:25:54.863Z,98725.94
2022-09-04T10:28:20.989Z,98729.44
2022-09-04T10:30:47.164Z,98731.16
2022-09-04T10:33:13.628Z,98733.19
2022-09-04T10:35:39.752Z,98736.25
2022-09-04T10:38:06.497Z,98728.84
2022-09-04T10:40:32.652Z,98724.81
2022-09-04T10:42:58.789Z,98736.28
2022-09-04T10:45:24.913Z,98724.84
2022-09-04T10:47:51.073Z,98730.03
2022-09-04T10:50:17.216Z,98721.91
2022-09-04T10:52:43.359Z,98726.81
2022-09-04T10:55:09.513Z,98721.56
2022-09-04T10:57:35.647Z,98731.09
2022-09-04T11:00:01.785Z,98735.47
2022-09-04T11:02:28.275Z,98729.28
2022-09-04T11:04:54.447Z,98733.16
2022-09-04T11:07:20.599Z,98727.75
2022-09-04T11:09:46.750Z,98726.72
2022-09-04T11:12:12.884Z,98722.72
2022-09-04T11:14:39.015Z,98722.91
2022-09-04T11:17:05.164Z,98715.34
2022-09-04T11:19:31.906Z,98713.50
2022-09-04T11:21:58.055Z,98726.19
2022-09-04T11:24:24.353Z,98719.50
2022-09-04T11:26:50.502Z,98726.09
2022-09-04T11:29:16.642Z,98718.16
2022-09-04T11:31:43.032Z,98715.50
2022-09-04T11:34:09.174Z,98725.06
2022-09-04T11:36:35.301Z,98721.91
2022-09-04T11:39:01.454Z,98724.91
2022-09-04T11:41:27.606Z,98723.41
2022-09-04T11:43:53.750Z,98716.66
2022-09-04T11:46:19.911Z,98722.13
2022-09-04T11:48:46.057Z,98715.75
2022-09-04T11:51:12.233Z,98728.06
2022-09-04T11:53:38.391Z,98732.66
2022-09-04T11:56:04.517Z,98722.38
2022-09-04T11:58:30.642Z,98724.38
2022-09-04T12:00:56.794Z,98723.84
2022-09-04T12:03:22.968Z,98727.13
2022-09-04T12:05:49.238Z,98725.75
2022-09-04T12:08:15.990Z,98724.38
2022-09-04T12:10:44.613Z,98732.31
2022-09-04T12:13:15.160Z,98731.06
2022-09-04T12:15:41.740Z,98730.13
2022-09-04T12:18:07.874Z,98742.97
2022-09-04T12:20:34.013Z,98739.72
2022-09-04T12:23:00.179Z,98745.16
2022-09-04T12:25:26.304Z,98743.28
2022-09-04T12:27:52.440Z,98734.47
2022-09-04T12:30:19.266Z,98735.81
2022-09-04T12:32:45.414Z,98740.75
2022-09-04T12:35:11.547Z,98738.84
2022-09-04T12:37:37.733Z,98733.19
2022-09-04T12:40:04.161Z,98741.09
2022-09-04T12:42:30.364Z,98734.16
2022-09-04T12:44:56.763Z,98742.09
2022-09-04T12:47:22.918Z,98737.44
2022-09-04T12:49:49.048Z,98733.34
2022-09-04T12:52:15.218Z,98739.59
2022-09-04T12:54:41.338Z,98738.00
2022-09-04T12:57:07.461Z,98732.81
2022-09-04T12:59:33.611Z,98740.16
2022-09-04T13:01:59.814Z,98739.91
2022-09-04T13:04:27.656Z,98736.09
2022-09-04T13:06:54.010Z,98752.91
2022-09-04T13:09:20.183Z,98746.88
2022-09-04T13:11:46.351Z,98745.28
2022-09-04T13:14:12.525Z,98747.47
2022-09-04T13:16:38.721Z,98749.44
2022-09-04T13:19:04.904Z,98754.63
2022-09-04T13:21:31.069Z,98750.31
2022-09-04T13:23:57.253Z,98767.94
2022-09-04T13:26:23.413Z,98765.75
2022-09-04T13:28:49.567Z,98756.53
2022-09-04T13:31:15.780Z,98756.22
2022-09-04T13:33:41.945Z,98763.00
2022-09-04T13:36:15.311Z,98758.13
2022-09-04T13:38:41.488Z,98764.00
2022-09-04T13:41:07.630Z,98761.06
2022-09-04T13:43:34.077Z,98758.88
2022-09-04T13:46:00.239Z,98761.69
2022-09-04T13:48:26.434Z,98761.97
2022-09-04T13:50:52.594Z,98756.78
2022-09-04T13:53:18.771Z,98772.47
2022-09-04T13:55:44.918Z,98777.16
2022-09-04T13:58:16.262Z,98774.16
2022-09-04T14:00:42.455Z,98777.59
2022-09-04T14:03:08.638Z,98775.66
2022-09-04T14:05:34.781Z,98770.25
2022-09-04T14:08:00.928Z,98769.25
2022-09-04T14:10:27.060Z,98774.09
2022-09-04T14:12:54.232Z,98780.63
2022-09-04T14:15:20.497Z,98774.88
2022-09-04T14:17:46.630Z,98776.22
2022-09-04T14:20:12.784Z,98776.81
2022-09-04T14:22:38.922Z,98776.31
2022-09-04T14:25:06.449Z,98776.31
2022-09-04T14:27:35.884Z,98779.66
2022-09-04T14:30:02.010Z,98778.06
2022-09-04T14:32:28.407Z,98776.69
2022-09-04T14:34:55.346Z,98774.22
2022-09-04T14:37:21.487Z,98786.13
2022-09-04T14:39:47.693Z,98773.66
2022-09-04T14:42:13.939Z,98783.72
2022-09-04T14:44:40.076Z,98780.16
2022-09-04T14:47:06.308Z,98770.94
2022-09-04T14:49:32.534Z,98779.09
2022-09-04T14:51:58.682Z,98779.09
2022-09-04T14:54:24.817Z,98774.72
2022-09-04T14:56:50.976Z,98781.00
2022-09-04T14:59:17.106Z,98772.56
2022-09-04T15:01:43.337Z,98770.69
2022-09-04T15:04:09.534Z,98773.78
2022-09-04T15:06:49.287Z,98774.00
2022-09-04T15:09:21.848Z,98777.84
2022-09-04T15:11:48.586Z,98771.34
2022-09-04T15:14:14.718Z,98772.16
2022-09-04T15:16:40.868Z,98776.22
2022-09-04T15:19:07.014Z,98781.09
2022-09-04T15:21:33.158Z,98781.63
2022-09-04T15:23:59.328Z,98775.34
2022-09-04T15:26:25.548Z,98776.97
2022-09-04T15:28:51.685Z,98773.44
2022-09-04T15:31:17.940Z,98774.00
2022-09-04T15:33:44.169Z,98776.97
2022-09-04T15:36:10.338Z,98776.97
2022-09-04T15:38:36.497Z,98774.78
2022-09-04T15:41:17.920Z,98772.06
2022-09-04T15:43:44.102Z,98778.06
2022-09-04T15:46:10.304Z,98775.91
2022-09-04T15:48:36.485Z,98777.50
2022-09-04T15:51:03.836Z,98775.84
2022-09-04T15:53:30.027Z,98776.16
2022-09-04T15:55:56.172Z,98782.41
2022-09-04T15:58:22.380Z,98774.50
2022-09-04T16:00:48.561Z,98770.66
2022-09-04T16:03:14.768Z,98771.25
2022-09-04T16:05:40.990Z,98774.53
2022-09-04T16:08:07.117Z,98768.81
2022-09-04T16:10:38.022Z,98771.00
2022-09-04T16:13:04.317Z,98769.09
2022-09-04T16:15:30.445Z,98772.09
2022-09-04T16:17:56.598Z,98771.28
2022-09-04T16:20:22.760Z,98775.63
2022-09-04T16:22:48.892Z,98777.81
2022-09-04T16:25:15.036Z,98780.25
2022-09-04T16:27:41.258Z,98778.88
2022-09-04T16:30:07.413Z,98782.41
2022-09-04T16:32:33.551Z,98782.97
2022-09-04T16:34:59.688Z,98786.22
2022-09-04T16:37:25.834Z,98778.31
2022-09-04T16:39:52.016Z,98773.13
2022-09-04T16:42:18.209Z,98772.63
2022-09-04T16:44:44.341Z,98771.28
2022-09-04T16:47:10.498Z,98774.81
2022-09-04T16:49:36.681Z,98775.91
2022-09-04T16:52:02.814Z,98785.13
2022-09-04T16:54:29.231Z,98781.06
2022-09-04T16:57:12.483Z,98787.59
2022-09-04T16:59:39.591Z,98789.19
2022-09-04T17:02:05.839Z,98786.72
2022-09-04T17:04:32.024Z,98781.84
2022-09-04T17:06:58.174Z,98775.84
2022-09-04T17:09:24.327Z,98781.00
2022-09-04T17:11:55.665Z,98784.22
2022-09-04T17:14:22.145Z,98783.97
2022-09-04T17:16:50.647Z,98781.50
2022-09-04T17:19:16.781Z,98783.38
2022-09-04T17:29:03.605Z,98785.03
2022-09-04T17:29:03.907Z,98781.50
2022-09-04T17:29:10.501Z,98785.13
2022-09-04T17:30:01.291Z,98787.59
2022-09-04T17:33:22.630Z,98788.75
2022-09-04T17:40:38.752Z,98784.56
2022-09-04T17:40:43.033Z,98786.50
2022-09-04T17:41:38.337Z,98790.78
2022-09-04T17:43:31.915Z,98787.19
2022-09-04T17:45:58.113Z,98784.47
2022-09-04T17:48:24.360Z,98783.06
2022-09-04T17:50:50.584Z,98795.25
2022-09-04T17:53:25.068Z,98794.16
2022-09-04T17:56:00.052Z,98786.78
2022-09-04T17:58:35.230Z,98796.41
2022-09-04T18:01:15.232Z,98790.63
2022-09-04T18:03:42.103Z,98784.03
2022-09-04T18:06:28.211Z,98788.59
2022-09-04T18:08:55.933Z,98787.47
2022-09-04T18:11:22.355Z,98795.06
2022-09-04T18:13:48.498Z,98795.28
2022-09-04T18:16:14.696Z,98792.94
2022-09-04T18:18:40.877Z,98798.28
2022-09-04T18:21:06.994Z,98793.81
2022-09-04T18:23:33.192Z,98795.66
2022-09-04T18:26:17.912Z,98808.97
2022-09-04T18:28:47.387Z,98808.13
2022-09-04T18:37:10.498Z,98809.44
2022-09-04T18:37:16.618Z,98809.63
2022-09-04T18:37:17.995Z,98822.31
2022-09-04T18:39:35.118Z,98819.97
2022-09-04T18:46:15.101Z,98818.59
2022-09-04T18:50:29.204Z,98823.72
2022-09-04T18:50:40.226Z,98822.31
2022-09-04T18:50:50.535Z,98824.66
2022-09-04T18:53:06.264Z,98833.44
2022-09-04T18:55:32.425Z,98829.44
2022-09-04T18:57:58.573Z,98839.69
2022-09-04T19:00:24.734Z,98844.78
2022-09-04T19:02:53.692Z,98838.78
2022-09-04T19:05:20.104Z,98841.50
2022-09-04T19:07:46.244Z,98847.41
2022-09-04T19:10:12.409Z,98853.91
2022-09-04T19:12:47.624Z,98852.75
2022-09-04T19:15:14.104Z,98857.25
2022-09-04T19:17:40.250Z,98852.81
2022-09-04T19:20:06.389Z,98864.63
2022-09-04T19:22:34.713Z,98853.09
2022-09-04T19:25:02.004Z,98852.69
2022-09-04T19:27:28.522Z,98847.63
2022-09-04T19:29:54.722Z,98853.59
2022-09-04T19:32:20.863Z,98848.00
2022-09-04T19:34:47.009Z,98852.63
2022-09-04T19:37:54.356Z,98853.84
2022-09-04T19:46:02.920Z,98848.84
2022-09-04T19:46:14.130Z,98852.94
2022-09-04T19:46:15.954Z,98849.03
2022-09-04T19:48:17.816Z,98849.59
2022-09-04T19:53:19.220Z,98851.16
2022-09-04T19:53:40.556Z,98844.13
2022-09-04T19:56:11.322Z,98846.00
2022-09-04T19:58:37.473Z,98848.94
2022-09-04T20:01:03.653Z,98849.91
2022-09-04T20:03:30.921Z,98851.91
2022-09-04T20:05:57.900Z,98854.88
2022-09-04T20:08:29.593Z,98864.50
2022-09-04T20:10:55.726Z,98855.41
2022-09-04T20:13:21.918Z,98858.81
2022-09-04T20:15:48.081Z,98854.25
2022-09-04T20:18:14.206Z,98864.13
2022-09-04T20:20:40.361Z,98865.75
2022-09-04T20:23:34.474Z,98865.59
2022-09-04T20:25:57.201Z,98871.81
2022-09-04T20:28:23.346Z,98866.13
2022-09-04T20:30:49.486Z,98873.03
2022-09-04T20:33:15.629Z,98871.59
2022-09-04T20:35:41.762Z,98865.97
2022-09-04T20:38:07.909Z,98864.19
2022-09-04T20:40:38.671Z,98867.13
2022-09-04T20:43:04.820Z,98864.03
2022-09-04T20:47:32.025Z,98861.34
2022-09-04T20:52:52.412Z,98864.28
2022-09-04T20:53:00.397Z,98865.91
2022-09-04T20:53:49.771Z,98857.00
2022-09-04T20:56:28.175Z,98866.47
2022-09-04T21:03:13.705Z,98858.75
2022-09-04T21:03:17.782Z,98868.81
2022-09-04T21:04:42.687Z,98868.38
2022-09-04T21:07:09.753Z,98872.94
2022-09-04T21:09:35.906Z,98861.22
2022-09-04T21:12:02.546Z,98865.41
2022-09-04T21:14:45.206Z,98871.25
2022-09-04T21:17:35.006Z,98871.88
2022-09-04T21:19:58.488Z,98865.31
2022-09-04T21:22:33.685Z,98868.81
2022-09-04T21:25:00.089Z,98871.38
2022-09-04T21:27:26.258Z,98889.28
2022-09-04T21:29:52.399Z,98879.97
2022-09-04T21:32:18.529Z,98885.16
2022-09-04T21:34:46.718Z,98889.13
2022-09-04T21:37:12.851Z,98886.75
2022-09-04T21:39:39.005Z,98874.38
2022-09-04T21:42:16.936Z,98880.72
2022-09-04T21:44:43.614Z,98885.69
2022-09-04T21:47:12.894Z,98883.22
2022-09-04T21:49:42.982Z,98885.63
2022-09-04T21:52:09.135Z,98893.31
2022-09-04T21:54:37.837Z,98890.50
2022-09-04T22:02:27.682Z,98888.50
2022-09-04T22:02:36.872Z,98884.09
2022-09-04T22:02:57.667Z,98886.53
2022-09-04T22:05:27.562Z,98887.50
2022-09-04T22:12:13.090Z,98881.84
2022-09-04T22:13:41.041Z,98888.25
2022-09-04T22:13:48.015Z,98889.53
2022-09-04T22:16:12.644Z,98889.38
2022-09-04T22:18:38.797Z,98880.09
2022-09-04T22:21:04.937Z,98887.69
2022-09-04T22:23:31.087Z,98889.56
2022-09-04T22:26:14.837Z,98883.59
2022-09-04T22:28:43.329Z,98892.38
2022-09-04T22:31:09.555Z,98895.88
2022-09-04T22:33:44.456Z,98887.03
2022-09-04T22:36:21.890Z,98888.31
2022-09-04T22:38:48.022Z,98888.31
2022-09-04T22:41:14.150Z,98891.25
2022-09-04T22:43:46.795Z,98893.75
2022-09-04T22:46:13.473Z,98891.59
2022-09-04T22:48:39.632Z,98894.34
2022-09-04T22:51:05.832Z,98892.78
2022-09-04T22:53:31.958Z,98902.25
2022-09-04T22:56:22.868Z,98900.94
2022-09-04T22:58:44.206Z,98894.19
2022-09-04T23:01:10.346Z,98892.38
2022-09-04T23:03:36.516Z,98899.34
2022-09-04T23:07:17.278Z,98901.66
2022-09-04T23:13:51.284Z,98899.84
2022-09-04T23:13:53.897Z,98895.75
2022-09-04T23:14:21.890Z,98898.06
2022-09-04T23:16:48.117Z,98893.72
2022-09-04T23:26:01.606Z,98890.84
2022-09-04T23:26:33.072Z,98896.22
2022-09-04T23:26:42.066Z,98891.03
2022-09-04T23:27:32.605Z,98900.44
2022-09-04T23:30:00.159Z,98903.97
2022-09-04T23:32:27.332Z,98903.16
2022-09-04T23:35:13.798Z,98905.22
2022-09-04T23:37:39.613Z,98905.56
2022-09-04T23:40:05.805Z,98904.56
2022-09-04T23:42:31.995Z,98912.00
2022-09-04T23:44:58.133Z,98908.84
2022-09-04T23:47:48.769Z,98906.13
2022-09-04T23:50:10.393Z,98900.16
2022-09-04T23:52:48.830Z,98905.69
2022-09-04T23:55:15.661Z,98905.06
2022-09-04T23:57:41.848Z,98902.28
